sensor_id;sensor_type;location;lat;lon;timestamp;P1;durP1;ratioP1;P2;durP2;ratioP2
3189;SDS011;1606;51.946;10.558;2023-04-28T00:00:52;8.23;;;3.83;;
3189;SDS011;1606;51.946;10.558;2023-04-28T00:03:19;13.50;;;4.57;;
3189;SDS011;1606;51.946;10.558;2023-04-28T00:05:49;12.33;;;4.30;;
3189;SDS011;1606;51.946;10.558;2023-04-28T00:08:19;9.90;;;4.50;;
3189;SDS011;1606;51.946;10.558;2023-04-28T00:10:48;10.60;;;4.57;;
3189;SDS011;1606;51.946;10.558;2023-04-28T00:13:16;9.90;;;4.50;;
3189;SDS011;1606;51.946;10.558;2023-04-28T00:15:44;8.50;;;3.90;;
3189;SDS011;1606;51.946;10.558;2023-04-28T00:18:11;11.00;;;3.93;;
3189;SDS011;1606;51.946;10.558;2023-04-28T00:20:39;9.70;;;4.03;;
3189;SDS011;1606;51.946;10.558;2023-04-28T00:23:08;12.30;;;4.40;;
3189;SDS011;1606;51.946;10.558;2023-04-28T00:25:36;10.80;;;3.93;;
3189;SDS011;1606;51.946;10.558;2023-04-28T00:28:04;12.17;;;4.17;;
3189;SDS011;1606;51.946;10.558;2023-04-28T00:30:32;10.50;;;3.60;;
3189;SDS011;1606;51.946;10.558;2023-04-28T00:32:59;8.38;;;3.80;;
3189;SDS011;1606;51.946;10.558;2023-04-28T00:35:27;11.63;;;3.97;;
3189;SDS011;1606;51.946;10.558;2023-04-28T00:37:55;9.80;;;4.00;;
3189;SDS011;1606;51.946;10.558;2023-04-28T00:40:25;9.90;;;4.77;;
3189;SDS011;1606;51.946;10.558;2023-04-28T00:42:59;7.60;;;3.57;;
3189;SDS011;1606;51.946;10.558;2023-04-28T00:45:27;8.87;;;3.77;;
3189;SDS011;1606;51.946;10.558;2023-04-28T00:47:55;7.83;;;3.60;;
3189;SDS011;1606;51.946;10.558;2023-04-28T00:50:23;11.50;;;3.60;;
3189;SDS011;1606;51.946;10.558;2023-04-28T00:52:52;8.70;;;4.53;;
3189;SDS011;1606;51.946;10.558;2023-04-28T00:55:21;10.80;;;3.83;;
3189;SDS011;1606;51.946;10.558;2023-04-28T00:57:52;9.47;;;3.73;;
3189;SDS011;1606;51.946;10.558;2023-04-28T01:00:22;8.97;;;3.60;;
3189;SDS011;1606;51.946;10.558;2023-04-28T01:02:50;9.50;;;4.27;;
3189;SDS011;1606;51.946;10.558;2023-04-28T01:05:19;8.70;;;4.00;;
3189;SDS011;1606;51.946;10.558;2023-04-28T01:07:47;10.27;;;3.83;;
3189;SDS011;1606;51.946;10.558;2023-04-28T01:10:15;8.70;;;3.87;;
3189;SDS011;1606;51.946;10.558;2023-04-28T01:12:43;39.97;;;4.73;;
3189;SDS011;1606;51.946;10.558;2023-04-28T01:15:14;8.17;;;3.90;;
3189;SDS011;1606;51.946;10.558;2023-04-28T01:17:43;10.93;;;3.60;;
3189;SDS011;1606;51.946;10.558;2023-04-28T01:20:12;10.20;;;4.23;;
3189;SDS011;1606;51.946;10.558;2023-04-28T01:22:40;9.70;;;4.63;;
3189;SDS011;1606;51.946;10.558;2023-04-28T01:25:09;14.37;;;4.40;;
3189;SDS011;1606;51.946;10.558;2023-04-28T01:27:37;10.37;;;3.90;;
3189;SDS011;1606;51.946;10.558;2023-04-28T01:30:05;10.73;;;5.00;;
3189;SDS011;1606;51.946;10.558;2023-04-28T01:32:34;11.40;;;4.80;;
3189;SDS011;1606;51.946;10.558;2023-04-28T01:35:02;10.80;;;4.57;;
3189;SDS011;1606;51.946;10.558;2023-04-28T01:37:30;10.33;;;4.50;;
3189;SDS011;1606;51.946;10.558;2023-04-28T01:39:57;9.87;;;4.27;;
3189;SDS011;1606;51.946;10.558;2023-04-28T01:42:26;11.03;;;4.60;;
3189;SDS011;1606;51.946;10.558;2023-04-28T01:44:54;8.60;;;4.20;;
3189;SDS011;1606;51.946;10.558;2023-04-28T01:47:22;9.57;;;5.10;;
3189;SDS011;1606;51.946;10.558;2023-04-28T01:49:50;8.27;;;4.30;;
3189;SDS011;1606;51.946;10.558;2023-04-28T01:52:17;10.03;;;4.30;;
3189;SDS011;1606;51.946;10.558;2023-04-28T01:54:47;13.23;;;4.27;;
3189;SDS011;1606;51.946;10.558;2023-04-28T01:57:15;8.17;;;4.63;;
3189;SDS011;1606;51.946;10.558;2023-04-28T01:59:46;9.37;;;5.23;;
3189;SDS011;1606;51.946;10.558;2023-04-28T02:02:13;9.60;;;4.60;;
3189;SDS011;1606;51.946;10.558;2023-04-28T02:04:41;9.80;;;4.87;;
3189;SDS011;1606;51.946;10.558;2023-04-28T02:07:09;8.93;;;4.47;;
3189;SDS011;1606;51.946;10.558;2023-04-28T02:09:37;17.93;;;5.20;;
3189;SDS011;1606;51.946;10.558;2023-04-28T02:12:05;8.47;;;3.93;;
3189;SDS011;1606;51.946;10.558;2023-04-28T02:14:32;11.20;;;4.90;;
3189;SDS011;1606;51.946;10.558;2023-04-28T02:17:01;9.73;;;4.50;;
3189;SDS011;1606;51.946;10.558;2023-04-28T02:19:30;11.50;;;4.10;;
3189;SDS011;1606;51.946;10.558;2023-04-28T02:21:58;8.77;;;4.10;;
3189;SDS011;1606;51.946;10.558;2023-04-28T02:24:26;9.57;;;4.00;;
3189;SDS011;1606;51.946;10.558;2023-04-28T02:26:53;10.97;;;5.67;;
3189;SDS011;1606;51.946;10.558;2023-04-28T02:29:22;9.63;;;4.60;;
3189;SDS011;1606;51.946;10.558;2023-04-28T02:31:50;13.33;;;5.23;;
3189;SDS011;1606;51.946;10.558;2023-04-28T02:34:19;9.67;;;5.10;;
3189;SDS011;1606;51.946;10.558;2023-04-28T02:36:47;9.90;;;5.13;;
3189;SDS011;1606;51.946;10.558;2023-04-28T02:39:15;13.23;;;5.40;;
3189;SDS011;1606;51.946;10.558;2023-04-28T02:41:43;12.33;;;5.00;;
3189;SDS011;1606;51.946;10.558;2023-04-28T02:44:10;12.80;;;5.20;;
3189;SDS011;1606;51.946;10.558;2023-04-28T02:46:38;10.13;;;4.30;;
3189;SDS011;1606;51.946;10.558;2023-04-28T02:49:06;10.20;;;4.80;;
3189;SDS011;1606;51.946;10.558;2023-04-28T02:51:35;8.90;;;4.03;;
3189;SDS011;1606;51.946;10.558;2023-04-28T02:54:03;10.70;;;4.67;;
3189;SDS011;1606;51.946;10.558;2023-04-28T02:56:31;10.17;;;4.93;;
3189;SDS011;1606;51.946;10.558;2023-04-28T02:58:59;10.30;;;5.47;;
3189;SDS011;1606;51.946;10.558;2023-04-28T03:01:27;13.60;;;6.73;;
3189;SDS011;1606;51.946;10.558;2023-04-28T03:03:54;10.30;;;6.00;;
3189;SDS011;1606;51.946;10.558;2023-04-28T03:06:22;9.80;;;4.83;;
3189;SDS011;1606;51.946;10.558;2023-04-28T03:08:52;11.77;;;5.80;;
3189;SDS011;1606;51.946;10.558;2023-04-28T03:11:19;10.90;;;5.60;;
3189;SDS011;1606;51.946;10.558;2023-04-28T03:13:47;8.97;;;5.67;;
3189;SDS011;1606;51.946;10.558;2023-04-28T03:16:15;13.27;;;5.77;;
3189;SDS011;1606;51.946;10.558;2023-04-28T03:18:42;13.27;;;5.20;;
3189;SDS011;1606;51.946;10.558;2023-04-28T03:21:10;11.50;;;5.93;;
3189;SDS011;1606;51.946;10.558;2023-04-28T03:23:38;10.87;;;5.00;;
3189;SDS011;1606;51.946;10.558;2023-04-28T03:26:07;11.17;;;5.40;;
3189;SDS011;1606;51.946;10.558;2023-04-28T03:28:35;12.60;;;6.10;;
3189;SDS011;1606;51.946;10.558;2023-04-28T03:31:03;10.30;;;5.57;;
3189;SDS011;1606;51.946;10.558;2023-04-28T03:33:31;12.40;;;6.10;;
3189;SDS011;1606;51.946;10.558;2023-04-28T03:35:59;10.03;;;5.80;;
3189;SDS011;1606;51.946;10.558;2023-04-28T03:38:26;13.00;;;5.80;;
3189;SDS011;1606;51.946;10.558;2023-04-28T03:40:54;15.33;;;6.47;;
3189;SDS011;1606;51.946;10.558;2023-04-28T03:43:23;12.10;;;6.20;;
3189;SDS011;1606;51.946;10.558;2023-04-28T03:45:51;13.90;;;6.03;;
3189;SDS011;1606;51.946;10.558;2023-04-28T03:48:19;12.87;;;6.30;;
3189;SDS011;1606;51.946;10.558;2023-04-28T03:50:47;13.13;;;5.83;;
3189;SDS011;1606;51.946;10.558;2023-04-28T03:53:15;16.17;;;7.00;;
3189;SDS011;1606;51.946;10.558;2023-04-28T03:55:43;14.10;;;6.23;;
3189;SDS011;1606;51.946;10.558;2023-04-28T03:58:10;16.27;;;6.73;;
3189;SDS011;1606;51.946;10.558;2023-04-28T04:00:40;17.07;;;7.60;;
3189;SDS011;1606;51.946;10.558;2023-04-28T04:03:07;15.13;;;7.20;;
3189;SDS011;1606;51.946;10.558;2023-04-28T04:05:36;10.97;;;5.27;;
3189;SDS011;1606;51.946;10.558;2023-04-28T04:08:06;12.10;;;6.60;;
3189;SDS011;1606;51.946;10.558;2023-04-28T04:10:34;13.27;;;8.73;;
3189;SDS011;1606;51.946;10.558;2023-04-28T04:13:01;14.97;;;6.10;;
3189;SDS011;1606;51.946;10.558;2023-04-28T04:15:29;13.57;;;6.67;;
3189;SDS011;1606;51.946;10.558;2023-04-28T04:17:58;11.97;;;5.80;;
3189;SDS011;1606;51.946;10.558;2023-04-28T04:20:27;13.97;;;6.97;;
3189;SDS011;1606;51.946;10.558;2023-04-28T04:22:54;13.57;;;6.40;;
3189;SDS011;1606;51.946;10.558;2023-04-28T04:25:22;13.20;;;6.90;;
3189;SDS011;1606;51.946;10.558;2023-04-28T04:27:50;11.67;;;6.20;;
3189;SDS011;1606;51.946;10.558;2023-04-28T04:30:18;17.63;;;8.37;;
3189;SDS011;1606;51.946;10.558;2023-04-28T04:32:46;12.93;;;7.40;;
3189;SDS011;1606;51.946;10.558;2023-04-28T04:35:15;13.20;;;6.37;;
3189;SDS011;1606;51.946;10.558;2023-04-28T04:37:43;10.93;;;7.00;;
3189;SDS011;1606;51.946;10.558;2023-04-28T04:40:11;13.10;;;7.37;;
3189;SDS011;1606;51.946;10.558;2023-04-28T04:42:39;16.10;;;7.13;;
3189;SDS011;1606;51.946;10.558;2023-04-28T04:45:07;13.20;;;8.00;;
3189;SDS011;1606;51.946;10.558;2023-04-28T04:47:35;11.00;;;6.60;;
3189;SDS011;1606;51.946;10.558;2023-04-28T04:50:03;17.13;;;7.87;;
3189;SDS011;1606;51.946;10.558;2023-04-28T04:52:32;13.67;;;6.50;;
3189;SDS011;1606;51.946;10.558;2023-04-28T04:55:00;15.20;;;6.20;;
3189;SDS011;1606;51.946;10.558;2023-04-28T04:57:28;15.10;;;7.30;;
3189;SDS011;1606;51.946;10.558;2023-04-28T04:59:56;17.67;;;7.27;;
3189;SDS011;1606;51.946;10.558;2023-04-28T05:02:24;12.77;;;7.43;;
3189;SDS011;1606;51.946;10.558;2023-04-28T05:04:51;14.20;;;8.60;;
3189;SDS011;1606;51.946;10.558;2023-04-28T05:07:34;11.50;;;6.93;;
3189;SDS011;1606;51.946;10.558;2023-04-28T05:10:02;10.53;;;6.90;;
3189;SDS011;1606;51.946;10.558;2023-04-28T05:12:32;14.90;;;7.10;;
3189;SDS011;1606;51.946;10.558;2023-04-28T05:15:00;12.70;;;7.77;;
3189;SDS011;1606;51.946;10.558;2023-04-28T05:17:27;11.43;;;7.00;;
3189;SDS011;1606;51.946;10.558;2023-04-28T05:19:55;15.57;;;7.63;;
3189;SDS011;1606;51.946;10.558;2023-04-28T05:22:23;12.90;;;8.20;;
3189;SDS011;1606;51.946;10.558;2023-04-28T05:24:53;14.73;;;8.37;;
3189;SDS011;1606;51.946;10.558;2023-04-28T05:27:21;13.63;;;7.90;;
3189;SDS011;1606;51.946;10.558;2023-04-28T05:29:48;17.80;;;8.40;;
3189;SDS011;1606;51.946;10.558;2023-04-28T05:32:16;15.83;;;9.80;;
3189;SDS011;1606;51.946;10.558;2023-04-28T05:34:44;17.90;;;9.30;;
3189;SDS011;1606;51.946;10.558;2023-04-28T05:37:12;18.97;;;8.27;;
3189;SDS011;1606;51.946;10.558;2023-04-28T05:39:39;14.20;;;9.10;;
3189;SDS011;1606;51.946;10.558;2023-04-28T05:42:09;17.60;;;9.10;;
3189;SDS011;1606;51.946;10.558;2023-04-28T05:44:37;15.43;;;8.77;;
3189;SDS011;1606;51.946;10.558;2023-04-28T05:47:08;14.20;;;8.33;;
3189;SDS011;1606;51.946;10.558;2023-04-28T05:49:35;16.07;;;9.37;;
3189;SDS011;1606;51.946;10.558;2023-04-28T05:52:03;17.30;;;8.90;;
3189;SDS011;1606;51.946;10.558;2023-04-28T05:54:31;14.17;;;8.40;;
3189;SDS011;1606;51.946;10.558;2023-04-28T05:57:00;16.97;;;9.27;;
3189;SDS011;1606;51.946;10.558;2023-04-28T05:59:29;14.33;;;8.50;;
3189;SDS011;1606;51.946;10.558;2023-04-28T06:01:57;14.10;;;8.47;;
3189;SDS011;1606;51.946;10.558;2023-04-28T06:04:25;18.80;;;8.47;;
3189;SDS011;1606;51.946;10.558;2023-04-28T06:06:53;13.43;;;8.00;;
3189;SDS011;1606;51.946;10.558;2023-04-28T06:09:21;51.37;;;9.70;;
3189;SDS011;1606;51.946;10.558;2023-04-28T06:11:49;13.70;;;8.30;;
3189;SDS011;1606;51.946;10.558;2023-04-28T06:14:16;18.93;;;9.10;;
3189;SDS011;1606;51.946;10.558;2023-04-28T06:16:46;15.90;;;8.80;;
3189;SDS011;1606;51.946;10.558;2023-04-28T06:19:14;16.37;;;8.43;;
3189;SDS011;1606;51.946;10.558;2023-04-28T06:21:44;13.40;;;8.40;;
3189;SDS011;1606;51.946;10.558;2023-04-28T06:24:12;19.33;;;9.77;;
3189;SDS011;1606;51.946;10.558;2023-04-28T06:26:40;17.37;;;8.00;;
3189;SDS011;1606;51.946;10.558;2023-04-28T06:29:08;15.53;;;8.23;;
3189;SDS011;1606;51.946;10.558;2023-04-28T06:31:36;15.80;;;8.40;;
3189;SDS011;1606;51.946;10.558;2023-04-28T06:34:05;15.63;;;8.10;;
3189;SDS011;1606;51.946;10.558;2023-04-28T06:36:33;17.57;;;9.40;;
3189;SDS011;1606;51.946;10.558;2023-04-28T06:39:01;17.23;;;9.03;;
3189;SDS011;1606;51.946;10.558;2023-04-28T06:41:29;16.10;;;8.70;;
3189;SDS011;1606;51.946;10.558;2023-04-28T06:43:57;15.03;;;7.37;;
3189;SDS011;1606;51.946;10.558;2023-04-28T06:46:25;15.80;;;7.70;;
3189;SDS011;1606;51.946;10.558;2023-04-28T06:48:52;17.70;;;8.57;;
3189;SDS011;1606;51.946;10.558;2023-04-28T06:51:21;20.53;;;9.47;;
3189;SDS011;1606;51.946;10.558;2023-04-28T06:53:50;15.07;;;8.80;;
3189;SDS011;1606;51.946;10.558;2023-04-28T06:56:18;19.20;;;9.57;;
3189;SDS011;1606;51.946;10.558;2023-04-28T06:58:46;14.67;;;8.60;;
3189;SDS011;1606;51.946;10.558;2023-04-28T07:01:14;15.50;;;8.10;;
3189;SDS011;1606;51.946;10.558;2023-04-28T07:03:42;14.80;;;7.80;;
3189;SDS011;1606;51.946;10.558;2023-04-28T07:06:09;14.30;;;8.00;;
3189;SDS011;1606;51.946;10.558;2023-04-28T07:08:40;20.03;;;9.80;;
3189;SDS011;1606;51.946;10.558;2023-04-28T07:11:07;14.97;;;8.93;;
3189;SDS011;1606;51.946;10.558;2023-04-28T07:13:35;13.93;;;7.60;;
3189;SDS011;1606;51.946;10.558;2023-04-28T07:16:03;13.07;;;7.80;;
3189;SDS011;1606;51.946;10.558;2023-04-28T07:18:34;15.90;;;8.10;;
3189;SDS011;1606;51.946;10.558;2023-04-28T07:21:01;13.40;;;7.70;;
3189;SDS011;1606;51.946;10.558;2023-04-28T07:23:30;13.30;;;7.80;;
3189;SDS011;1606;51.946;10.558;2023-04-28T07:26:00;15.27;;;9.57;;
3189;SDS011;1606;51.946;10.558;2023-04-28T07:28:27;18.07;;;8.10;;
3189;SDS011;1606;51.946;10.558;2023-04-28T07:30:55;13.60;;;7.50;;
3189;SDS011;1606;51.946;10.558;2023-04-28T07:33:23;16.53;;;9.23;;
3189;SDS011;1606;51.946;10.558;2023-04-28T07:35:51;13.93;;;8.07;;
3189;SDS011;1606;51.946;10.558;2023-04-28T07:38:19;20.97;;;8.77;;
3189;SDS011;1606;51.946;10.558;2023-04-28T07:40:47;15.73;;;8.63;;
3189;SDS011;1606;51.946;10.558;2023-04-28T07:43:21;17.47;;;10.00;;
3189;SDS011;1606;51.946;10.558;2023-04-28T07:45:49;21.90;;;10.00;;
3189;SDS011;1606;51.946;10.558;2023-04-28T07:48:16;21.53;;;9.10;;
3189;SDS011;1606;51.946;10.558;2023-04-28T07:50:44;14.70;;;8.30;;
3189;SDS011;1606;51.946;10.558;2023-04-28T07:53:12;20.93;;;9.43;;
3189;SDS011;1606;51.946;10.558;2023-04-28T07:55:40;17.93;;;8.17;;
3189;SDS011;1606;51.946;10.558;2023-04-28T07:58:09;16.20;;;9.90;;
3189;SDS011;1606;51.946;10.558;2023-04-28T08:00:38;14.70;;;8.20;;
3189;SDS011;1606;51.946;10.558;2023-04-28T08:03:06;13.20;;;8.63;;
3189;SDS011;1606;51.946;10.558;2023-04-28T08:05:34;14.43;;;8.90;;
3189;SDS011;1606;51.946;10.558;2023-04-28T08:08:02;17.10;;;10.70;;
3189;SDS011;1606;51.946;10.558;2023-04-28T08:10:31;16.73;;;9.97;;
3189;SDS011;1606;51.946;10.558;2023-04-28T08:12:58;17.13;;;10.53;;
3189;SDS011;1606;51.946;10.558;2023-04-28T08:15:26;18.87;;;8.63;;
3189;SDS011;1606;51.946;10.558;2023-04-28T08:17:55;15.43;;;8.50;;
3189;SDS011;1606;51.946;10.558;2023-04-28T08:20:23;16.87;;;9.20;;
3189;SDS011;1606;51.946;10.558;2023-04-28T08:22:51;16.00;;;9.50;;
3189;SDS011;1606;51.946;10.558;2023-04-28T08:25:19;18.23;;;11.43;;
3189;SDS011;1606;51.946;10.558;2023-04-28T08:27:47;17.20;;;10.40;;
3189;SDS011;1606;51.946;10.558;2023-04-28T08:30:14;17.07;;;9.83;;
3189;SDS011;1606;51.946;10.558;2023-04-28T08:32:42;16.70;;;9.30;;
3189;SDS011;1606;51.946;10.558;2023-04-28T08:35:12;15.67;;;10.20;;
3189;SDS011;1606;51.946;10.558;2023-04-28T08:37:40;20.40;;;10.67;;
3189;SDS011;1606;51.946;10.558;2023-04-28T08:40:08;15.57;;;9.60;;
3189;SDS011;1606;51.946;10.558;2023-04-28T08:42:36;14.77;;;9.60;;
3189;SDS011;1606;51.946;10.558;2023-04-28T08:45:05;17.80;;;9.40;;
3189;SDS011;1606;51.946;10.558;2023-04-28T08:47:34;15.27;;;9.60;;
3189;SDS011;1606;51.946;10.558;2023-04-28T08:50:05;17.60;;;10.37;;
3189;SDS011;1606;51.946;10.558;2023-04-28T08:52:35;13.63;;;8.90;;
3189;SDS011;1606;51.946;10.558;2023-04-28T08:55:04;16.30;;;9.83;;
3189;SDS011;1606;51.946;10.558;2023-04-28T08:57:36;17.00;;;10.83;;
3189;SDS011;1606;51.946;10.558;2023-04-28T09:00:07;18.40;;;10.23;;
3189;SDS011;1606;51.946;10.558;2023-04-28T09:02:35;17.17;;;9.60;;
3189;SDS011;1606;51.946;10.558;2023-04-28T09:05:06;14.40;;;8.53;;
3189;SDS011;1606;51.946;10.558;2023-04-28T09:07:36;17.33;;;10.23;;
3189;SDS011;1606;51.946;10.558;2023-04-28T09:10:14;18.23;;;9.83;;
3189;SDS011;1606;51.946;10.558;2023-04-28T09:12:44;18.23;;;10.50;;
3189;SDS011;1606;51.946;10.558;2023-04-28T09:15:23;20.57;;;9.23;;
3189;SDS011;1606;51.946;10.558;2023-04-28T09:17:52;13.97;;;9.40;;
3189;SDS011;1606;51.946;10.558;2023-04-28T09:20:20;16.63;;;10.63;;
3189;SDS011;1606;51.946;10.558;2023-04-28T09:22:51;18.80;;;9.77;;
3189;SDS011;1606;51.946;10.558;2023-04-28T09:25:20;15.70;;;9.80;;
3189;SDS011;1606;51.946;10.558;2023-04-28T09:27:49;15.70;;;10.27;;
3189;SDS011;1606;51.946;10.558;2023-04-28T09:30:17;15.97;;;10.33;;
3189;SDS011;1606;51.946;10.558;2023-04-28T09:32:45;21.93;;;11.20;;
3189;SDS011;1606;51.946;10.558;2023-04-28T09:35:39;16.30;;;9.90;;
3189;SDS011;1606;51.946;10.558;2023-04-28T09:38:09;15.83;;;10.47;;
3189;SDS011;1606;51.946;10.558;2023-04-28T09:40:50;15.00;;;10.77;;
3189;SDS011;1606;51.946;10.558;2023-04-28T09:43:27;17.30;;;10.67;;
3189;SDS011;1606;51.946;10.558;2023-04-28T09:45:56;13.87;;;9.23;;
3189;SDS011;1606;51.946;10.558;2023-04-28T09:48:25;15.33;;;10.27;;
3189;SDS011;1606;51.946;10.558;2023-04-28T09:50:58;16.10;;;9.30;;
3189;SDS011;1606;51.946;10.558;2023-04-28T09:53:28;19.40;;;10.33;;
3189;SDS011;1606;51.946;10.558;2023-04-28T09:55:57;17.20;;;10.23;;
3189;SDS011;1606;51.946;10.558;2023-04-28T09:58:27;14.77;;;9.07;;
3189;SDS011;1606;51.946;10.558;2023-04-28T10:00:56;15.37;;;10.40;;
3189;SDS011;1606;51.946;10.558;2023-04-28T10:03:25;19.33;;;11.50;;
3189;SDS011;1606;51.946;10.558;2023-04-28T10:05:56;17.50;;;10.03;;
3189;SDS011;1606;51.946;10.558;2023-04-28T10:08:25;20.33;;;10.17;;
3189;SDS011;1606;51.946;10.558;2023-04-28T10:10:55;19.03;;;10.73;;
3189;SDS011;1606;51.946;10.558;2023-04-28T10:13:23;16.70;;;9.47;;
3189;SDS011;1606;51.946;10.558;2023-04-28T10:15:52;17.60;;;11.00;;
3189;SDS011;1606;51.946;10.558;2023-04-28T10:18:21;14.87;;;9.33;;
3189;SDS011;1606;51.946;10.558;2023-04-28T10:20:52;18.07;;;11.00;;
3189;SDS011;1606;51.946;10.558;2023-04-28T10:26:15;18.50;;;11.20;;
3189;SDS011;1606;51.946;10.558;2023-04-28T10:28:45;19.13;;;10.57;;
3189;SDS011;1606;51.946;10.558;2023-04-28T10:31:14;17.60;;;10.40;;
3189;SDS011;1606;51.946;10.558;2023-04-28T10:33:43;18.07;;;11.93;;
3189;SDS011;1606;51.946;10.558;2023-04-28T10:36:17;22.03;;;11.87;;
3189;SDS011;1606;51.946;10.558;2023-04-28T10:39:16;21.23;;;11.80;;
3189;SDS011;1606;51.946;10.558;2023-04-28T10:41:45;22.33;;;13.13;;
3189;SDS011;1606;51.946;10.558;2023-04-28T10:47:10;24.67;;;13.10;;
3189;SDS011;1606;51.946;10.558;2023-04-28T10:52:46;19.23;;;11.53;;
3189;SDS011;1606;51.946;10.558;2023-04-28T10:55:30;20.80;;;11.33;;
3189;SDS011;1606;51.946;10.558;2023-04-28T11:03:53;17.10;;;12.03;;
3189;SDS011;1606;51.946;10.558;2023-04-28T11:06:28;18.27;;;12.60;;
3189;SDS011;1606;51.946;10.558;2023-04-28T11:08:59;20.17;;;12.13;;
3189;SDS011;1606;51.946;10.558;2023-04-28T11:11:28;22.20;;;11.67;;
3189;SDS011;1606;51.946;10.558;2023-04-28T11:16:58;21.13;;;13.13;;
3189;SDS011;1606;51.946;10.558;2023-04-28T11:19:28;18.70;;;11.60;;
3189;SDS011;1606;51.946;10.558;2023-04-28T11:21:59;19.73;;;11.50;;
3189;SDS011;1606;51.946;10.558;2023-04-28T11:24:28;16.90;;;11.60;;
3189;SDS011;1606;51.946;10.558;2023-04-28T11:26:58;18.90;;;12.57;;
3189;SDS011;1606;51.946;10.558;2023-04-28T11:29:32;17.17;;;11.43;;
3189;SDS011;1606;51.946;10.558;2023-04-28T11:32:01;21.57;;;13.27;;
3189;SDS011;1606;51.946;10.558;2023-04-28T11:34:29;17.30;;;12.23;;
3189;SDS011;1606;51.946;10.558;2023-04-28T11:36:58;17.10;;;11.83;;
3189;SDS011;1606;51.946;10.558;2023-04-28T11:39:27;19.13;;;12.10;;
3189;SDS011;1606;51.946;10.558;2023-04-28T11:41:56;16.47;;;10.80;;
3189;SDS011;1606;51.946;10.558;2023-04-28T11:44:25;22.40;;;12.60;;
3189;SDS011;1606;51.946;10.558;2023-04-28T11:46:55;20.20;;;12.47;;
3189;SDS011;1606;51.946;10.558;2023-04-28T11:49:26;20.87;;;12.80;;
3189;SDS011;1606;51.946;10.558;2023-04-28T11:51:56;20.63;;;11.53;;
3189;SDS011;1606;51.946;10.558;2023-04-28T11:54:26;19.80;;;12.30;;
3189;SDS011;1606;51.946;10.558;2023-04-28T11:56:54;19.30;;;12.53;;
3189;SDS011;1606;51.946;10.558;2023-04-28T11:59:24;22.80;;;12.63;;
3189;SDS011;1606;51.946;10.558;2023-04-28T12:01:53;17.52;;;11.63;;
3189;SDS011;1606;51.946;10.558;2023-04-28T12:04:29;18.83;;;13.20;;
3189;SDS011;1606;51.946;10.558;2023-04-28T12:07:02;19.30;;;11.97;;
3189;SDS011;1606;51.946;10.558;2023-04-28T12:09:32;16.03;;;11.63;;
3189;SDS011;1606;51.946;10.558;2023-04-28T12:12:00;20.13;;;12.87;;
3189;SDS011;1606;51.946;10.558;2023-04-28T12:14:30;18.20;;;12.13;;
3189;SDS011;1606;51.946;10.558;2023-04-28T12:17:01;20.43;;;11.97;;
3189;SDS011;1606;51.946;10.558;2023-04-28T12:19:31;24.33;;;12.80;;
3189;SDS011;1606;51.946;10.558;2023-04-28T12:22:10;18.00;;;13.10;;
3189;SDS011;1606;51.946;10.558;2023-04-28T12:24:37;15.23;;;11.20;;
3189;SDS011;1606;51.946;10.558;2023-04-28T12:27:15;20.13;;;11.67;;
3189;SDS011;1606;51.946;10.558;2023-04-28T12:29:46;15.43;;;11.60;;
3189;SDS011;1606;51.946;10.558;2023-04-28T12:32:14;19.63;;;12.37;;
3189;SDS011;1606;51.946;10.558;2023-04-28T12:34:44;18.80;;;12.20;;
3189;SDS011;1606;51.946;10.558;2023-04-28T12:37:12;19.47;;;12.43;;
3189;SDS011;1606;51.946;10.558;2023-04-28T12:39:40;18.47;;;12.90;;
3189;SDS011;1606;51.946;10.558;2023-04-28T12:42:09;21.90;;;12.80;;
3189;SDS011;1606;51.946;10.558;2023-04-28T12:44:37;16.07;;;11.27;;
3189;SDS011;1606;51.946;10.558;2023-04-28T12:47:06;14.87;;;11.50;;
3189;SDS011;1606;51.946;10.558;2023-04-28T12:49:36;18.43;;;12.87;;
3189;SDS011;1606;51.946;10.558;2023-04-28T12:52:05;19.03;;;12.77;;
3189;SDS011;1606;51.946;10.558;2023-04-28T12:54:33;19.00;;;13.50;;
3189;SDS011;1606;51.946;10.558;2023-04-28T12:57:01;22.53;;;13.10;;
3189;SDS011;1606;51.946;10.558;2023-04-28T12:59:30;17.70;;;12.13;;
3189;SDS011;1606;51.946;10.558;2023-04-28T13:01:59;19.70;;;13.50;;
3189;SDS011;1606;51.946;10.558;2023-04-28T13:04:27;20.37;;;13.23;;
3189;SDS011;1606;51.946;10.558;2023-04-28T13:06:55;26.03;;;14.43;;
3189;SDS011;1606;51.946;10.558;2023-04-28T13:09:25;20.13;;;14.10;;
3189;SDS011;1606;51.946;10.558;2023-04-28T13:11:53;19.30;;;13.37;;
3189;SDS011;1606;51.946;10.558;2023-04-28T13:14:21;18.97;;;13.30;;
3189;SDS011;1606;51.946;10.558;2023-04-28T13:16:49;19.90;;;13.57;;
3189;SDS011;1606;51.946;10.558;2023-04-28T13:19:18;17.70;;;13.83;;
3189;SDS011;1606;51.946;10.558;2023-04-28T13:21:46;18.13;;;13.70;;
3189;SDS011;1606;51.946;10.558;2023-04-28T13:24:13;22.13;;;14.73;;
3189;SDS011;1606;51.946;10.558;2023-04-28T13:26:43;20.57;;;14.87;;
3189;SDS011;1606;51.946;10.558;2023-04-28T13:29:10;22.00;;;14.30;;
3189;SDS011;1606;51.946;10.558;2023-04-28T13:31:39;21.90;;;16.33;;
3189;SDS011;1606;51.946;10.558;2023-04-28T13:34:07;19.70;;;14.90;;
3189;SDS011;1606;51.946;10.558;2023-04-28T13:36:41;23.20;;;15.60;;
3189;SDS011;1606;51.946;10.558;2023-04-28T13:39:09;22.20;;;15.90;;
3189;SDS011;1606;51.946;10.558;2023-04-28T13:41:39;21.33;;;15.63;;
3189;SDS011;1606;51.946;10.558;2023-04-28T13:44:08;23.80;;;17.00;;
3189;SDS011;1606;51.946;10.558;2023-04-28T13:46:36;18.40;;;14.60;;
3189;SDS011;1606;51.946;10.558;2023-04-28T13:49:04;21.17;;;15.77;;
3189;SDS011;1606;51.946;10.558;2023-04-28T13:51:32;23.43;;;17.20;;
3189;SDS011;1606;51.946;10.558;2023-04-28T13:54:00;20.90;;;16.10;;
3189;SDS011;1606;51.946;10.558;2023-04-28T13:56:29;22.10;;;17.27;;
3189;SDS011;1606;51.946;10.558;2023-04-28T13:58:58;22.37;;;17.37;;
3189;SDS011;1606;51.946;10.558;2023-04-28T14:01:27;21.43;;;17.23;;
3189;SDS011;1606;51.946;10.558;2023-04-28T14:03:55;21.50;;;16.87;;
3189;SDS011;1606;51.946;10.558;2023-04-28T14:06:23;26.17;;;17.30;;
3189;SDS011;1606;51.946;10.558;2023-04-28T14:08:51;23.10;;;17.23;;
3189;SDS011;1606;51.946;10.558;2023-04-28T14:11:19;21.40;;;15.47;;
3189;SDS011;1606;51.946;10.558;2023-04-28T14:13:47;21.87;;;15.90;;
3189;SDS011;1606;51.946;10.558;2023-04-28T14:16:15;25.23;;;17.73;;
3189;SDS011;1606;51.946;10.558;2023-04-28T14:18:45;29.53;;;17.23;;
3189;SDS011;1606;51.946;10.558;2023-04-28T14:21:12;21.33;;;16.50;;
3189;SDS011;1606;51.946;10.558;2023-04-28T14:23:40;30.10;;;16.83;;
3189;SDS011;1606;51.946;10.558;2023-04-28T14:26:08;20.77;;;16.73;;
3189;SDS011;1606;51.946;10.558;2023-04-28T14:28:36;22.93;;;16.33;;
3189;SDS011;1606;51.946;10.558;2023-04-28T14:31:03;19.73;;;15.53;;
3189;SDS011;1606;51.946;10.558;2023-04-28T14:33:34;22.37;;;16.17;;
3189;SDS011;1606;51.946;10.558;2023-04-28T14:36:03;21.83;;;15.77;;
3189;SDS011;1606;51.946;10.558;2023-04-28T14:38:31;23.33;;;15.30;;
3189;SDS011;1606;51.946;10.558;2023-04-28T14:41:05;20.67;;;15.07;;
3189;SDS011;1606;51.946;10.558;2023-04-28T14:43:33;25.77;;;16.30;;
3189;SDS011;1606;51.946;10.558;2023-04-28T14:46:01;28.50;;;17.50;;
3189;SDS011;1606;51.946;10.558;2023-04-28T14:48:29;23.40;;;15.43;;
3189;SDS011;1606;51.946;10.558;2023-04-28T14:50:58;22.07;;;17.53;;
3189;SDS011;1606;51.946;10.558;2023-04-28T14:53:27;23.20;;;17.38;;
3189;SDS011;1606;51.946;10.558;2023-04-28T14:55:56;20.80;;;16.60;;
3189;SDS011;1606;51.946;10.558;2023-04-28T14:58:42;23.80;;;16.70;;
3189;SDS011;1606;51.946;10.558;2023-04-28T15:01:10;20.93;;;16.30;;
3189;SDS011;1606;51.946;10.558;2023-04-28T15:03:38;23.20;;;15.50;;
3189;SDS011;1606;51.946;10.558;2023-04-28T15:06:06;20.70;;;17.00;;
3189;SDS011;1606;51.946;10.558;2023-04-28T15:08:35;20.47;;;16.13;;
3189;SDS011;1606;51.946;10.558;2023-04-28T15:11:05;23.97;;;18.10;;